Messwerte Plettenberg Bay

Temperatur

Temperatur
°C
1580173200 3.00 3.00 16
1580176800 4.00 4.00 15
1580180400 5.00 5.00 16
1580184000 6.00 6.00 15
1580187600 7.00 7.00 17
1580191200 8.00 8.00 19
1580194800 9.00 9.00 22
1580198400 10.00 10.00 22
1580202000 11.00 11.00 22
1580205600 12.00 12.00 21
1580209200 13.00 13.00 22
1580212800 14.00 14.00 21
1580216400 15.00 15.00 22
1580220000 16.00 16.00
1580223600 17.00 17.00 22
1580227200 18.00 18.00 21
1580230800 19.00 19.00 19
1580234400 20.00 20.00 19
1580238000 21.00 21.00 18
1580241600 22.00 22.00
1580245200 23.00 23.00 19
1580248800 0.00 0.00
1580252400 1.00 1.00 20
1580256000 2.00 2.00 19

Aktuellste Messwerte

Temperatur
19 °C
Feuchtigkeit
85 %
Wind
5 km/hWindrichtung: West
Luftdruck
1016 hPa
Messzeit: 29. Januar 2020, 2.00Datenquelle: METAR

Weitere Messstationen in der Nähe

Messstation Temperatur Entfernung
George 17 °C 87 km
Beaufort West 19 °C 206 km
Port Elizabeth 20 °C 212 km
De Aar 20 °C 386 km
Bisho 14 °C 390 km
Oos Londen - 434 km
Kapstadt 18 °C 435 km

Wind

Windrichtung Böen Mittelwind
° km/h km/h
1580173200 3.00 2.00 - 3.00 340° 5
1580176800 4.00 3.00 - 4.00 320° 5
1580180400 5.00 4.00 - 5.00 270° 5
1580184000 6.00 5.00 - 6.00 240° 5
1580187600 7.00 6.00 - 7.00 260° 10
1580191200 8.00 7.00 - 8.00 270° 10
1580194800 9.00 8.00 - 9.00 250° 10
1580198400 10.00 9.00 - 10.00 260° 15
1580202000 11.00 10.00 - 11.00 240° 20
1580205600 12.00 11.00 - 12.00 230° 30
1580209200 13.00 12.00 - 13.00 240° 40 20
1580212800 14.00 13.00 - 14.00 240° 35 20
1580216400 15.00 14.00 - 15.00 250° 15
1580220000 16.00 15.00 - 16.00
1580223600 17.00 16.00 - 17.00 240° 20
1580227200 18.00 17.00 - 18.00 250° 20
1580230800 19.00 18.00 - 19.00 250° 15
1580234400 20.00 19.00 - 20.00 260° 10
1580238000 21.00 20.00 - 21.00 240° 15
1580241600 22.00 21.00 - 22.00
1580245200 23.00 22.00 - 23.00 300° 10
1580248800 0.00 23.00 - 0.00
1580252400 1.00 0.00 - 1.00 300° 10
1580256000 2.00 1.00 - 2.00 280° 5

Ihre Wetterstation

Fehlt Ihre Wetterstation auf unserem Portal?

Schreiben Sie an network@meteonews.ch

Klima

Wann ist es am wärmsten? Wann regnet es am wenigsten? Unsere Klimadaten geben Auskunft.